sensor_id;sensor_type;location;lat;lon;timestamp;pressure;altitude;pressure_sealevel;temperature;humidity
44453;BME280;30155;52.164;21.236;2023-04-02T00:08:44;99522.00;;;7.18;76.85
44453;BME280;30155;52.164;21.236;2023-04-02T00:13:43;99531.10;;;7.16;77.10
44453;BME280;30155;52.164;21.236;2023-04-02T00:18:43;99541.77;;;7.15;77.00
44453;BME280;30155;52.164;21.236;2023-04-02T00:23:39;99546.90;;;7.12;76.97
44453;BME280;30155;52.164;21.236;2023-04-02T00:28:32;99550.98;;;7.09;77.33
44453;BME280;30155;52.164;21.236;2023-04-02T00:33:27;99549.06;;;7.06;77.21
44453;BME280;30155;52.164;21.236;2023-04-02T00:38:26;99553.54;;;7.06;77.55
44453;BME280;30155;52.164;21.236;2023-04-02T00:43:23;99555.23;;;7.02;77.62
44453;BME280;30155;52.164;21.236;2023-04-02T00:48:58;99558.34;;;7.03;77.94
44453;BME280;30155;52.164;21.236;2023-04-02T00:53:55;99558.99;;;7.01;77.60
44453;BME280;30155;52.164;21.236;2023-04-02T00:58:51;99569.47;;;6.98;77.72
44453;BME280;30155;52.164;21.236;2023-04-02T01:03:55;99572.03;;;6.96;77.57
44453;BME280;30155;52.164;21.236;2023-04-02T01:14:19;99578.52;;;6.92;77.59
44453;BME280;30155;52.164;21.236;2023-04-02T01:24:54;99586.00;;;6.84;77.59
44453;BME280;30155;52.164;21.236;2023-04-02T01:29:56;99586.32;;;6.83;77.59
44453;BME280;30155;52.164;21.236;2023-04-02T01:34:50;99590.77;;;6.81;77.43
44453;BME280;30155;52.164;21.236;2023-04-02T01:40:02;99590.90;;;6.77;77.43
44453;BME280;30155;52.164;21.236;2023-04-02T01:45:09;99594.64;;;6.75;77.28
44453;BME280;30155;52.164;21.236;2023-04-02T01:50:13;99595.48;;;6.73;77.39
44453;BME280;30155;52.164;21.236;2023-04-02T01:55:12;99602.69;;;6.71;77.26
44453;BME280;30155;52.164;21.236;2023-04-02T02:00:07;99609.23;;;6.71;77.41
44453;BME280;30155;52.164;21.236;2023-04-02T02:05:05;99615.04;;;6.68;77.48
44453;BME280;30155;52.164;21.236;2023-04-02T02:10:05;99616.17;;;6.63;77.18
44453;BME280;30155;52.164;21.236;2023-04-02T02:14:58;99621.42;;;6.58;77.22
44453;BME280;30155;52.164;21.236;2023-04-02T02:19:54;99626.88;;;6.55;77.30
44453;BME280;30155;52.164;21.236;2023-04-02T02:24:48;99634.23;;;6.52;77.34
44453;BME280;30155;52.164;21.236;2023-04-02T02:29:43;99630.76;;;6.49;77.23
44453;BME280;30155;52.164;21.236;2023-04-02T02:34:48;99638.64;;;6.46;77.33
44453;BME280;30155;52.164;21.236;2023-04-02T02:39:46;99645.55;;;6.47;77.49
44453;BME280;30155;52.164;21.236;2023-04-02T02:44:46;99648.13;;;6.48;77.54
44453;BME280;30155;52.164;21.236;2023-04-02T02:49:52;99658.74;;;6.44;77.35
44453;BME280;30155;52.164;21.236;2023-04-02T02:54:51;99667.02;;;6.36;77.48
44453;BME280;30155;52.164;21.236;2023-04-02T02:59:47;99665.18;;;6.29;77.65
44453;BME280;30155;52.164;21.236;2023-04-02T03:04:46;99673.56;;;6.26;77.88
44453;BME280;30155;52.164;21.236;2023-04-02T03:20:09;99685.45;;;6.16;78.01
44453;BME280;30155;52.164;21.236;2023-04-02T03:30:32;99700.64;;;6.10;78.09
44453;BME280;30155;52.164;21.236;2023-04-02T03:41:06;99709.61;;;6.11;78.12
44453;BME280;30155;52.164;21.236;2023-04-02T03:46:30;99714.91;;;6.09;78.09
44453;BME280;30155;52.164;21.236;2023-04-02T03:51:26;99723.84;;;6.08;78.09
44453;BME280;30155;52.164;21.236;2023-04-02T03:56:31;99733.30;;;6.08;77.99
44453;BME280;30155;52.164;21.236;2023-04-02T04:01:40;99737.92;;;6.07;78.05
44453;BME280;30155;52.164;21.236;2023-04-02T04:06:44;99746.73;;;6.08;77.89
44453;BME280;30155;52.164;21.236;2023-04-02T04:11:43;99753.77;;;6.08;77.94
44453;BME280;30155;52.164;21.236;2023-04-02T04:21:38;99767.40;;;6.09;77.96
44453;BME280;30155;52.164;21.236;2023-04-02T04:32:29;99777.21;;;6.01;77.77
44453;BME280;30155;52.164;21.236;2023-04-02T04:37:36;99785.73;;;5.98;77.92
44453;BME280;30155;52.164;21.236;2023-04-02T04:42:35;99789.97;;;5.96;77.86
44453;BME280;30155;52.164;21.236;2023-04-02T04:47:37;99796.42;;;5.92;77.83
44453;BME280;30155;52.164;21.236;2023-04-02T04:52:36;99801.68;;;5.89;77.81
44453;BME280;30155;52.164;21.236;2023-04-02T04:57:34;99808.94;;;5.90;77.82
44453;BME280;30155;52.164;21.236;2023-04-02T05:02:40;99816.77;;;5.86;77.48
44453;BME280;30155;52.164;21.236;2023-04-02T05:07:44;99821.58;;;5.86;77.52
44453;BME280;30155;52.164;21.236;2023-04-02T05:18:18;99840.85;;;5.79;77.51
44453;BME280;30155;52.164;21.236;2023-04-02T05:23:27;99847.17;;;5.78;77.46
44453;BME280;30155;52.164;21.236;2023-04-02T05:28:31;99855.95;;;5.70;77.43
44453;BME280;30155;52.164;21.236;2023-04-02T05:33:29;99866.98;;;5.63;77.41
44453;BME280;30155;52.164;21.236;2023-04-02T05:38:29;99876.84;;;5.58;77.50
44453;BME280;30155;52.164;21.236;2023-04-02T05:43:24;99886.45;;;5.50;77.40
44453;BME280;30155;52.164;21.236;2023-04-02T05:48:38;99892.20;;;5.47;77.60
44453;BME280;30155;52.164;21.236;2023-04-02T05:53:38;99901.85;;;5.49;77.66
44453;BME280;30155;52.164;21.236;2023-04-02T05:58:43;99904.88;;;5.52;77.54
44453;BME280;30155;52.164;21.236;2023-04-02T06:08:51;99906.92;;;5.51;77.19
44453;BME280;30155;52.164;21.236;2023-04-02T06:13:47;99917.02;;;5.49;77.03
44453;BME280;30155;52.164;21.236;2023-04-02T06:18:43;99922.30;;;5.48;77.00
44453;BME280;30155;52.164;21.236;2023-04-02T06:23:42;99924.52;;;5.47;77.02
44453;BME280;30155;52.164;21.236;2023-04-02T06:28:47;99942.20;;;5.46;76.99
44453;BME280;30155;52.164;21.236;2023-04-02T06:33:42;99958.36;;;5.46;76.92
44453;BME280;30155;52.164;21.236;2023-04-02T06:38:38;99963.64;;;5.44;76.86
44453;BME280;30155;52.164;21.236;2023-04-02T06:43:38;99972.40;;;5.44;77.03
44453;BME280;30155;52.164;21.236;2023-04-02T06:48:58;99971.42;;;5.46;77.00
44453;BME280;30155;52.164;21.236;2023-04-02T06:53:53;99967.37;;;5.49;76.82
44453;BME280;30155;52.164;21.236;2023-04-02T06:58:46;99968.32;;;5.46;76.50
44453;BME280;30155;52.164;21.236;2023-04-02T07:03:40;99975.98;;;5.42;76.65
44453;BME280;30155;52.164;21.236;2023-04-02T07:08:48;99985.53;;;5.47;76.83
44453;BME280;30155;52.164;21.236;2023-04-02T07:13:43;99990.47;;;5.51;76.74
44453;BME280;30155;52.164;21.236;2023-04-02T07:18:37;99997.70;;;5.52;76.53
44453;BME280;30155;52.164;21.236;2023-04-02T07:23:30;100006.69;;;5.47;76.35
44453;BME280;30155;52.164;21.236;2023-04-02T07:28:23;100013.50;;;5.45;76.44
44453;BME280;30155;52.164;21.236;2023-04-02T07:33:19;100024.47;;;5.43;76.34
44453;BME280;30155;52.164;21.236;2023-04-02T07:38:12;100032.02;;;5.37;76.09
44453;BME280;30155;52.164;21.236;2023-04-02T07:43:05;100037.23;;;5.32;75.89
44453;BME280;30155;52.164;21.236;2023-04-02T07:48:05;100053.14;;;5.29;75.84
44453;BME280;30155;52.164;21.236;2023-04-02T07:52:59;100059.02;;;5.25;75.84
44453;BME280;30155;52.164;21.236;2023-04-02T07:57:55;100054.98;;;5.22;75.73
44453;BME280;30155;52.164;21.236;2023-04-02T08:02:48;100054.26;;;5.26;75.40
44453;BME280;30155;52.164;21.236;2023-04-02T08:07:42;100060.37;;;5.36;74.99
44453;BME280;30155;52.164;21.236;2023-04-02T08:12:36;100062.96;;;5.43;74.70
44453;BME280;30155;52.164;21.236;2023-04-02T08:17:29;100061.86;;;5.54;74.47
44453;BME280;30155;52.164;21.236;2023-04-02T08:22:24;100072.52;;;5.60;74.41
44453;BME280;30155;52.164;21.236;2023-04-02T08:27:18;100089.86;;;5.65;74.48
44453;BME280;30155;52.164;21.236;2023-04-02T08:32:11;100097.48;;;5.61;74.02
44453;BME280;30155;52.164;21.236;2023-04-02T08:37:10;100092.65;;;5.60;73.96
44453;BME280;30155;52.164;21.236;2023-04-02T08:42:13;100097.21;;;5.70;73.84
44453;BME280;30155;52.164;21.236;2023-04-02T08:47:12;100099.23;;;5.68;73.49
44453;BME280;30155;52.164;21.236;2023-04-02T08:52:18;100109.74;;;5.69;73.74
44453;BME280;30155;52.164;21.236;2023-04-02T09:07:19;100144.45;;;5.62;73.80
44453;BME280;30155;52.164;21.236;2023-04-02T09:12:18;100146.23;;;5.58;73.67
44453;BME280;30155;52.164;21.236;2023-04-02T09:17:20;100147.87;;;5.55;73.47
44453;BME280;30155;52.164;21.236;2023-04-02T09:22:20;100154.81;;;5.58;73.55
44453;BME280;30155;52.164;21.236;2023-04-02T09:27:17;100159.90;;;5.61;73.73
44453;BME280;30155;52.164;21.236;2023-04-02T09:32:38;100159.42;;;5.62;73.73
44453;BME280;30155;52.164;21.236;2023-04-02T09:37:27;100157.79;;;5.66;73.48
44453;BME280;30155;52.164;21.236;2023-04-02T09:42:31;100162.39;;;5.64;73.54
44453;BME280;30155;52.164;21.236;2023-04-02T09:47:25;100164.73;;;5.62;73.48
44453;BME280;30155;52.164;21.236;2023-04-02T09:52:26;100168.77;;;5.59;73.44
44453;BME280;30155;52.164;21.236;2023-04-02T09:57:22;100178.13;;;5.56;73.67
44453;BME280;30155;52.164;21.236;2023-04-02T10:02:27;100185.60;;;5.58;73.65
44453;BME280;30155;52.164;21.236;2023-04-02T10:07:37;100188.56;;;5.59;73.81
44453;BME280;30155;52.164;21.236;2023-04-02T10:12:36;100193.60;;;5.67;73.79
44453;BME280;30155;52.164;21.236;2023-04-02T10:17:34;100201.90;;;5.69;73.53
44453;BME280;30155;52.164;21.236;2023-04-02T10:22:29;100212.49;;;5.66;73.37
44453;BME280;30155;52.164;21.236;2023-04-02T10:32:33;100223.11;;;5.71;73.12
44453;BME280;30155;52.164;21.236;2023-04-02T10:42:45;100236.55;;;5.72;73.25
44453;BME280;30155;52.164;21.236;2023-04-02T10:48:15;100242.84;;;5.76;73.22
44453;BME280;30155;52.164;21.236;2023-04-02T10:53:19;100246.49;;;5.89;73.15
44453;BME280;30155;52.164;21.236;2023-04-02T10:58:23;100247.58;;;5.96;72.93
44453;BME280;30155;52.164;21.236;2023-04-02T11:03:53;100256.56;;;5.92;72.67
44453;BME280;30155;52.164;21.236;2023-04-02T11:08:56;100272.41;;;5.76;72.90
44453;BME280;30155;52.164;21.236;2023-04-02T11:14:08;100281.16;;;5.68;73.11
44453;BME280;30155;52.164;21.236;2023-04-02T11:29:26;100297.80;;;5.50;73.31
44453;BME280;30155;52.164;21.236;2023-04-02T11:55:22;100336.94;;;5.32;74.53
44453;BME280;30155;52.164;21.236;2023-04-02T12:05:47;100359.20;;;5.34;74.89
44453;BME280;30155;52.164;21.236;2023-04-02T12:10:52;100365.16;;;5.27;75.06
44453;BME280;30155;52.164;21.236;2023-04-02T12:15:47;100369.02;;;5.30;75.27
44453;BME280;30155;52.164;21.236;2023-04-02T12:20:45;100371.28;;;5.31;75.45
44453;BME280;30155;52.164;21.236;2023-04-02T12:36:01;100385.70;;;5.25;76.12
44453;BME280;30155;52.164;21.236;2023-04-02T12:41:00;100392.58;;;5.36;76.08
44453;BME280;30155;52.164;21.236;2023-04-02T12:45:59;100384.55;;;5.53;75.75
44453;BME280;30155;52.164;21.236;2023-04-02T12:50:52;100380.60;;;5.70;75.59
44453;BME280;30155;52.164;21.236;2023-04-02T12:55:48;100392.87;;;5.89;75.63
44453;BME280;30155;52.164;21.236;2023-04-02T13:00:41;100406.72;;;5.91;75.61
44453;BME280;30155;52.164;21.236;2023-04-02T13:05:47;100410.69;;;5.81;76.05
44453;BME280;30155;52.164;21.236;2023-04-02T13:10:41;100404.46;;;5.69;76.24
44453;BME280;30155;52.164;21.236;2023-04-02T13:15:35;100414.88;;;5.61;76.23
44453;BME280;30155;52.164;21.236;2023-04-02T13:25:30;100425.42;;;5.57;76.34
44453;BME280;30155;52.164;21.236;2023-04-02T13:30:26;100431.02;;;5.55;76.53
44453;BME280;30155;52.164;21.236;2023-04-02T13:35:20;100435.61;;;5.48;76.25
44453;BME280;30155;52.164;21.236;2023-04-02T13:40:15;100436.75;;;5.47;76.24
44453;BME280;30155;52.164;21.236;2023-04-02T13:45:36;100440.29;;;5.49;76.09
44453;BME280;30155;52.164;21.236;2023-04-02T13:50:33;100448.83;;;5.58;76.03
44453;BME280;30155;52.164;21.236;2023-04-02T13:55:29;100454.79;;;5.67;76.33
44453;BME280;30155;52.164;21.236;2023-04-02T14:00:26;100461.20;;;5.68;76.52
44453;BME280;30155;52.164;21.236;2023-04-02T14:05:34;100466.23;;;5.64;76.57
44453;BME280;30155;52.164;21.236;2023-04-02T14:11:01;100466.44;;;5.60;76.12
44453;BME280;30155;52.164;21.236;2023-04-02T14:16:22;100459.30;;;5.48;75.98
44453;BME280;30155;52.164;21.236;2023-04-02T14:32:25;100495.98;;;5.39;76.65
44453;BME280;30155;52.164;21.236;2023-04-02T14:37:38;100501.05;;;5.36;76.54
44453;BME280;30155;52.164;21.236;2023-04-02T14:42:46;100503.09;;;5.30;76.62
44453;BME280;30155;52.164;21.236;2023-04-02T14:47:49;100509.77;;;5.30;77.08
44453;BME280;30155;52.164;21.236;2023-04-02T14:52:52;100515.23;;;5.28;77.01
44453;BME280;30155;52.164;21.236;2023-04-02T14:57:51;100523.95;;;5.18;76.97
44453;BME280;30155;52.164;21.236;2023-04-02T15:02:47;100528.23;;;5.13;77.09
44453;BME280;30155;52.164;21.236;2023-04-02T15:08:12;100537.34;;;5.08;77.02
44453;BME280;30155;52.164;21.236;2023-04-02T15:13:16;100539.71;;;5.12;77.19
44453;BME280;30155;52.164;21.236;2023-04-02T15:18:14;100549.00;;;5.12;77.35
44453;BME280;30155;52.164;21.236;2023-04-02T15:28:33;100568.98;;;4.86;77.73
44453;BME280;30155;52.164;21.236;2023-04-02T15:33:32;100574.75;;;4.74;77.68
44453;BME280;30155;52.164;21.236;2023-04-02T15:38:37;100576.30;;;4.66;77.63
44453;BME280;30155;52.164;21.236;2023-04-02T15:48:39;100585.91;;;4.52;77.89
44453;BME280;30155;52.164;21.236;2023-04-02T16:04:15;100613.59;;;4.32;78.04
44453;BME280;30155;52.164;21.236;2023-04-02T16:09:25;100619.95;;;4.24;78.21
44453;BME280;30155;52.164;21.236;2023-04-02T16:14:29;100629.98;;;4.21;78.37
44453;BME280;30155;52.164;21.236;2023-04-02T16:19:32;100639.48;;;4.15;78.28
44453;BME280;30155;52.164;21.236;2023-04-02T16:24:26;100651.43;;;4.05;78.44
44453;BME280;30155;52.164;21.236;2023-04-02T16:35:28;100666.77;;;3.87;78.76
44453;BME280;30155;52.164;21.236;2023-04-02T16:40:43;100680.05;;;3.85;79.03
44453;BME280;30155;52.164;21.236;2023-04-02T16:56:31;100690.60;;;3.67;79.30
44453;BME280;30155;52.164;21.236;2023-04-02T17:01:45;100691.69;;;3.64;79.56
44453;BME280;30155;52.164;21.236;2023-04-02T17:06:42;100696.98;;;3.60;79.64
44453;BME280;30155;52.164;21.236;2023-04-02T17:11:42;100706.90;;;3.56;79.60
44453;BME280;30155;52.164;21.236;2023-04-02T17:16:42;100717.98;;;3.51;79.82
44453;BME280;30155;52.164;21.236;2023-04-02T17:21:36;100726.52;;;3.50;79.73
44453;BME280;30155;52.164;21.236;2023-04-02T17:26:33;100732.98;;;3.49;80.04
44453;BME280;30155;52.164;21.236;2023-04-02T17:31:31;100741.07;;;3.46;80.00
44453;BME280;30155;52.164;21.236;2023-04-02T18:07:18;100778.50;;;3.40;80.44
44453;BME280;30155;52.164;21.236;2023-04-02T18:17:44;100797.39;;;3.37;80.49
44453;BME280;30155;52.164;21.236;2023-04-02T18:28:04;100804.57;;;3.37;80.42
44453;BME280;30155;52.164;21.236;2023-04-02T18:48:30;100826.67;;;3.33;80.14
44453;BME280;30155;52.164;21.236;2023-04-02T18:53:28;100830.81;;;3.34;79.93
44453;BME280;30155;52.164;21.236;2023-04-02T18:58:31;100836.41;;;3.33;79.98
44453;BME280;30155;52.164;21.236;2023-04-02T19:03:30;100839.70;;;3.33;80.01
44453;BME280;30155;52.164;21.236;2023-04-02T19:08:47;100842.90;;;3.32;79.98
44453;BME280;30155;52.164;21.236;2023-04-02T19:13:42;100846.46;;;3.32;80.00
44453;BME280;30155;52.164;21.236;2023-04-02T19:34:43;100862.47;;;3.36;80.01
44453;BME280;30155;52.164;21.236;2023-04-02T19:45:00;100865.66;;;3.35;79.45
44453;BME280;30155;52.164;21.236;2023-04-02T19:49:55;100868.95;;;3.36;79.26
44453;BME280;30155;52.164;21.236;2023-04-02T19:54:47;100872.73;;;3.36;79.22
44453;BME280;30155;52.164;21.236;2023-04-02T19:59:40;100872.52;;;3.35;78.42
44453;BME280;30155;52.164;21.236;2023-04-02T20:04:33;100875.09;;;3.35;78.16
44453;BME280;30155;52.164;21.236;2023-04-02T20:09:26;100874.80;;;3.36;78.04
44453;BME280;30155;52.164;21.236;2023-04-02T20:14:20;100878.17;;;3.39;77.55
44453;BME280;30155;52.164;21.236;2023-04-02T20:19:13;100882.05;;;3.41;77.63
44453;BME280;30155;52.164;21.236;2023-04-02T20:24:06;100886.48;;;3.44;77.50
44453;BME280;30155;52.164;21.236;2023-04-02T20:29:00;100883.07;;;3.44;77.85
44453;BME280;30155;52.164;21.236;2023-04-02T20:33:54;100892.64;;;3.43;78.13
44453;BME280;30155;52.164;21.236;2023-04-02T20:38:48;100895.77;;;3.44;78.12
44453;BME280;30155;52.164;21.236;2023-04-02T20:43:41;100904.98;;;3.43;78.30
44453;BME280;30155;52.164;21.236;2023-04-02T20:48:34;100906.57;;;3.41;78.27
44453;BME280;30155;52.164;21.236;2023-04-02T20:53:30;100917.19;;;3.41;78.91
44453;BME280;30155;52.164;21.236;2023-04-02T20:58:24;100923.73;;;3.41;79.34
44453;BME280;30155;52.164;21.236;2023-04-02T21:03:17;100925.27;;;3.42;79.42
44453;BME280;30155;52.164;21.236;2023-04-02T21:08:11;100927.89;;;3.39;79.38
44453;BME280;30155;52.164;21.236;2023-04-02T21:13:04;100929.02;;;3.34;79.41
44453;BME280;30155;52.164;21.236;2023-04-02T21:17:57;100933.79;;;3.30;79.52
44453;BME280;30155;52.164;21.236;2023-04-02T21:22:50;100930.59;;;3.28;79.43
44453;BME280;30155;52.164;21.236;2023-04-02T21:27:43;100929.62;;;3.26;79.38
44453;BME280;30155;52.164;21.236;2023-04-02T21:32:36;100931.39;;;3.23;79.21
44453;BME280;30155;52.164;21.236;2023-04-02T21:37:29;100935.14;;;3.20;78.90
44453;BME280;30155;52.164;21.236;2023-04-02T21:42:22;100939.36;;;3.18;78.30
44453;BME280;30155;52.164;21.236;2023-04-02T21:47:16;100939.09;;;3.16;77.26
44453;BME280;30155;52.164;21.236;2023-04-02T21:52:09;100942.65;;;3.16;76.61
44453;BME280;30155;52.164;21.236;2023-04-02T21:57:02;100944.84;;;3.15;75.90
44453;BME280;30155;52.164;21.236;2023-04-02T22:01:55;100945.89;;;3.12;74.83
44453;BME280;30155;52.164;21.236;2023-04-02T22:06:50;100947.80;;;3.13;73.92
44453;BME280;30155;52.164;21.236;2023-04-02T22:11:55;100954.58;;;3.11;73.25
44453;BME280;30155;52.164;21.236;2023-04-02T22:17:22;100957.61;;;3.10;72.23
44453;BME280;30155;52.164;21.236;2023-04-02T22:22:15;100961.69;;;3.10;72.01
44453;BME280;30155;52.164;21.236;2023-04-02T22:27:08;100974.63;;;3.08;71.99
44453;BME280;30155;52.164;21.236;2023-04-02T22:32:01;100975.14;;;3.08;71.02
44453;BME280;30155;52.164;21.236;2023-04-02T22:36:54;100985.26;;;3.09;71.08
44453;BME280;30155;52.164;21.236;2023-04-02T22:41:48;100990.63;;;3.06;70.44
44453;BME280;30155;52.164;21.236;2023-04-02T22:46:42;100992.77;;;3.04;70.66
44453;BME280;30155;52.164;21.236;2023-04-02T22:51:38;100997.13;;;3.02;70.40
44453;BME280;30155;52.164;21.236;2023-04-02T22:56:31;100994.53;;;2.99;70.27
44453;BME280;30155;52.164;21.236;2023-04-02T23:01:29;100998.82;;;2.95;69.54
44453;BME280;30155;52.164;21.236;2023-04-02T23:06:23;101000.73;;;2.92;69.13
44453;BME280;30155;52.164;21.236;2023-04-02T23:11:19;101001.67;;;2.87;68.76
44453;BME280;30155;52.164;21.236;2023-04-02T23:16:15;101005.52;;;2.83;69.13
44453;BME280;30155;52.164;21.236;2023-04-02T23:21:08;101006.09;;;2.78;68.74
44453;BME280;30155;52.164;21.236;2023-04-02T23:30:58;101007.34;;;2.65;67.84
44453;BME280;30155;52.164;21.236;2023-04-02T23:35:52;101012.83;;;2.59;67.94
44453;BME280;30155;52.164;21.236;2023-04-02T23:40:45;101014.29;;;2.51;67.68
44453;BME280;30155;52.164;21.236;2023-04-02T23:45:39;101023.04;;;2.45;67.34
44453;BME280;30155;52.164;21.236;2023-04-02T23:50:32;101028.80;;;2.38;67.48
44453;BME280;30155;52.164;21.236;2023-04-02T23:55:25;101037.44;;;2.30;67.37
